Time;durP1;ratioP1;P1;durP2;ratioP2;P2;SDS_P1;SDS_P2;PMS_P1;PMS_P2;Temp;Humidity;BMP_temperature;BMP_pressure;BME280_temperature;BME280_humidity;BME280_pressure;Samples;Min_cycle;Max_cycle;Signal;HPM_P1;HPM_P2
2022/08/17 00:00:21;;;;;;;23.90;21.38;;;;;;;22.09;94.91;100887.13;5097922;28;20055;-60
2022/08/17 00:03:13;;;;;;;22.55;20.30;;;;;;;22.04;94.98;100878.78;5098993;28;20052;-61
2022/08/17 00:05:46;;;;;;;24.23;21.50;;;;;;;21.96;95.42;100879.63;5098231;28;20550;-56
2022/08/17 00:08:17;;;;;;;22.23;19.95;;;;;;;22.00;95.03;100883.63;5098346;28;20063;-59
2022/08/17 00:10:47;;;;;;;23.17;20.77;;;;;;;21.97;95.47;100880.47;5097165;28;20499;-60
2022/08/17 00:13:19;;;;;;;21.90;19.55;;;;;;;21.99;95.57;100879.31;5098526;28;20497;-61
2022/08/17 00:15:47;;;;;;;21.83;19.55;;;;;;;22.03;95.98;100879.78;5098251;28;20044;-57
2022/08/17 00:18:15;;;;;;;21.42;19.13;;;;;;;22.01;95.87;100871.91;5098175;28;20086;-62
2022/08/17 00:21:05;;;;;;;20.85;18.73;;;;;;;21.99;95.47;100867.75;5098639;28;20040;-57
2022/08/17 00:23:39;;;;;;;23.98;20.90;;;;;;;22.01;95.74;100863.06;5098244;28;20070;-61
2022/08/17 00:26:16;;;;;;;22.00;19.75;;;;;;;22.01;95.38;100853.19;5098251;28;20048;-61
2022/08/17 00:29:05;;;;;;;21.40;19.13;;;;;;;21.97;95.41;100851.84;5098604;28;20433;-60
2022/08/17 00:31:34;;;;;;;22.05;19.35;;;;;;;21.98;95.58;100847.31;5098156;28;20040;-60
2022/08/17 00:34:03;;;;;;;23.65;21.13;;;;;;;21.92;95.51;100844.38;5098199;28;20044;-60
2022/08/17 00:36:31;;;;;;;22.33;19.98;;;;;;;21.83;96.09;100850.75;5096978;28;20044;-60
2022/08/17 00:38:59;;;;;;;23.30;20.58;;;;;;;21.85;95.90;100851.41;5098412;28;20521;-60
2022/08/17 00:41:31;;;;;;;24.92;20.55;;;;;;;21.80;95.78;100850.25;5098787;28;20048;-57
2022/08/17 00:44:01;;;;;;;24.60;20.58;;;;;;;21.76;95.75;100845.25;5098353;28;20067;-57
2022/08/17 00:46:34;;;;;;;22.35;19.92;;;;;;;21.75;96.56;100845.44;5098536;28;20062;-61
2022/08/17 00:49:04;;;;;;;23.60;20.65;;;;;;;21.74;96.40;100849.13;5098546;28;20059;-60
2022/08/17 00:51:37;;;;;;;22.95;20.65;;;;;;;21.67;96.75;100845.47;5098436;28;20139;-61
2022/08/17 00:54:11;;;;;;;23.05;19.98;;;;;;;21.68;96.67;100847.13;5098307;28;20044;-60
2022/08/17 00:56:56;;;;;;;23.55;21.02;;;;;;;21.60;96.93;100839.97;5098669;28;20126;-56
2022/08/17 00:59:29;;;;;;;24.10;21.15;;;;;;;21.58;96.76;100842.81;5098877;28;20421;-56
2022/08/17 01:01:58;;;;;;;24.05;21.00;;;;;;;21.59;97.30;100849.81;5099159;28;20510;-61
2022/08/17 01:04:29;;;;;;;25.05;20.98;;;;;;;21.56;97.33;100835.97;5095102;28;20040;-58
2022/08/17 01:07:00;;;;;;;22.23;20.00;;;;;;;21.55;97.30;100839.66;5094657;28;20085;-59
2022/08/17 01:09:29;;;;;;;23.43;21.07;;;;;;;21.57;97.14;100838.47;5095640;28;20514;-61
2022/08/17 01:12:00;;;;;;;24.13;21.30;;;;;;;21.50;97.72;100831.25;5095172;28;20044;-57
2022/08/17 01:14:28;;;;;;;24.42;20.63;;;;;;;21.51;97.73;100835.63;5095249;28;20048;-59
2022/08/17 01:16:56;;;;;;;25.33;22.67;;;;;;;21.52;97.55;100830.09;5096018;28;20090;-56
2022/08/17 01:19:27;;;;;;;23.73;20.98;;;;;;;21.53;97.60;100831.81;5095106;28;20044;-57
2022/08/17 01:22:03;;;;;;;23.38;20.98;;;;;;;21.50;97.70;100824.09;5094246;28;20052;-60
2022/08/17 01:24:35;;;;;;;23.27;20.90;;;;;;;21.46;98.21;100828.13;5095625;28;20055;-56
2022/08/17 01:27:05;;;;;;;23.10;20.52;;;;;;;21.49;97.76;100822.41;5095604;28;20130;-56
2022/08/17 01:29:40;;;;;;;24.38;21.77;;;;;;;21.41;98.49;100817.09;5095148;28;20040;-59
2022/08/17 01:32:09;;;;;;;24.13;21.70;;;;;;;21.39;98.46;100811.91;5094320;28;20044;-56
2022/08/17 01:34:38;;;;;;;24.98;21.98;;;;;;;21.39;98.62;100817.28;5094562;28;20071;-57
2022/08/17 01:37:18;;;;;;;23.85;21.27;;;;;;;21.45;98.54;100815.75;5095216;28;20040;-60
2022/08/17 01:39:52;;;;;;;25.45;21.70;;;;;;;21.37;98.47;100823.78;5095076;28;20036;-60
2022/08/17 01:42:26;;;;;;;27.80;22.15;;;;;;;21.36;98.26;100817.59;5094762;28;20381;-59
2022/08/17 01:44:57;;;;;;;25.25;20.60;;;;;;;21.33;98.67;100812.59;5094436;28;20051;-56
2022/08/17 01:47:25;;;;;;;25.40;21.05;;;;;;;21.34;98.71;100816.94;5094474;28;20168;-57
2022/08/17 01:49:58;;;;;;;24.63;21.38;;;;;;;21.35;98.51;100817.75;5094488;28;20105;-58
2022/08/17 01:52:26;;;;;;;24.75;22.00;;;;;;;21.30;99.21;100817.44;5094930;28;20523;-57
2022/08/17 01:54:57;;;;;;;25.60;22.90;;;;;;;21.30;99.04;100818.28;5094358;28;20081;-57
2022/08/17 01:57:25;;;;;;;25.63;22.92;;;;;;;21.19;99.61;100807.97;5093854;28;20054;-61
2022/08/17 02:00:02;;;;;;;25.77;23.27;;;;;;;21.19;99.78;100803.44;5093118;28;20044;-57
2022/08/17 02:02:45;;;;;;;26.27;22.45;;;;;;;21.14;100.00;100805.78;5094764;28;20200;-57
2022/08/17 02:05:26;;;;;;;25.50;22.70;;;;;;;21.13;100.00;100803.28;5094453;28;20044;-60
2022/08/17 02:08:06;;;;;;;25.23;22.52;;;;;;;21.13;100.00;100805.97;5094273;28;20491;-57
2022/08/17 02:10:36;;;;;;;26.23;22.48;;;;;;;21.08;100.00;100811.84;5093030;28;20119;-56
2022/08/17 02:13:14;;;;;;;26.20;22.75;;;;;;;21.06;100.00;100803.94;5093807;28;20105;-56
2022/08/17 02:15:42;;;;;;;25.13;22.48;;;;;;;21.07;100.00;100805.63;5093312;28;20044;-58
2022/08/17 02:18:13;;;;;;;26.02;23.38;;;;;;;20.90;100.00;100796.81;5093532;28;20044;-56
2022/08/17 02:20:42;;;;;;;26.25;23.60;;;;;;;20.91;100.00;100802.97;5093583;28;20093;-56
2022/08/17 02:23:13;;;;;;;26.85;22.98;;;;;;;20.93;100.00;100811.69;5092451;28;20039;-60
2022/08/17 02:25:47;;;;;;;25.80;23.13;;;;;;;20.89;100.00;100807.69;5093474;28;20053;-60
2022/08/17 02:28:16;;;;;;;24.45;21.85;;;;;;;20.88;100.00;100804.16;5093910;28;20483;-61
2022/08/17 02:30:45;;;;;;;26.70;24.05;;;;;;;20.90;100.00;100812.00;5093302;28;20044;-59
2022/08/17 02:33:30;;;;;;;25.90;23.30;;;;;;;20.85;100.00;100801.81;5093400;28;20048;-60
2022/08/17 02:36:26;;;;;;;27.00;24.20;;;;;;;20.81;100.00;100802.34;5093365;28;20048;-55
2022/08/17 02:39:06;;;;;;;29.90;24.92;;;;;;;20.79;100.00;100798.97;5091661;28;20044;-57
2022/08/17 02:41:46;;;;;;;26.00;23.40;;;;;;;20.82;100.00;100799.50;5092241;28;20051;-57
2022/08/17 02:44:14;;;;;;;27.00;24.27;;;;;;;20.71;100.00;100797.16;5093228;28;20060;-60
2022/08/17 02:47:02;;;;;;;26.38;23.65;;;;;;;20.67;100.00;100796.63;5093356;28;20047;-55
2022/08/17 02:49:31;;;;;;;26.48;23.70;;;;;;;20.68;100.00;100798.34;5093329;28;20112;-60
2022/08/17 02:52:02;;;;;;;30.95;24.75;;;;;;;20.68;100.00;100798.34;5093272;28;20481;-56
2022/08/17 02:54:30;;;;;;;27.27;24.35;;;;;;;20.63;100.00;100805.13;5092890;28;20052;-58
2022/08/17 02:57:11;;;;;;;27.42;24.40;;;;;;;20.65;100.00;100808.47;5093332;28;20083;-56
2022/08/17 02:59:40;;;;;;;32.65;24.42;;;;;;;20.65;100.00;100803.97;5093113;28;20055;-61
2022/08/17 03:02:15;;;;;;;26.02;23.33;;;;;;;20.60;100.00;100806.28;5092770;28;20056;-55
2022/08/17 03:04:43;;;;;;;26.27;23.48;;;;;;;20.52;100.00;100804.47;5091787;28;20490;-59
2022/08/17 03:07:20;;;;;;;28.63;25.23;;;;;;;20.56;100.00;100795.13;5092695;28;20052;-59
2022/08/17 03:09:56;;;;;;;26.75;23.70;;;;;;;20.50;100.00;100800.31;5091752;28;20479;-57
2022/08/17 03:12:32;;;;;;;27.00;24.27;;;;;;;20.49;100.00;100794.13;5092606;28;20491;-56
2022/08/17 03:15:03;;;;;;;26.90;24.10;;;;;;;20.55;100.00;100788.09;5092442;28;20109;-60
2022/08/17 03:17:31;;;;;;;26.60;23.05;;;;;;;20.56;100.00;100786.25;5092841;28;20040;-60
2022/08/17 03:19:59;;;;;;;27.27;24.48;;;;;;;20.42;100.00;100777.94;5092580;28;20082;-57
2022/08/17 03:22:28;;;;;;;25.50;22.35;;;;;;;20.44;100.00;100786.59;5092482;28;20046;-55
2022/08/17 03:25:05;;;;;;;26.25;23.33;;;;;;;20.49;100.00;100785.25;5092347;28;20050;-60
2022/08/17 03:27:39;;;;;;;26.10;23.38;;;;;;;20.49;100.00;100793.28;5091391;28;20048;-57
2022/08/17 03:30:12;;;;;;;25.45;22.88;;;;;;;20.53;100.00;100794.63;5092340;28;20383;-60
2022/08/17 03:32:45;;;;;;;24.65;22.17;;;;;;;20.48;100.00;100794.28;5092609;28;20052;-57
2022/08/17 03:35:16;;;;;;;25.92;23.30;;;;;;;20.47;100.00;100788.09;5092675;28;20048;-60
2022/08/17 03:37:46;;;;;;;27.20;23.52;;;;;;;20.46;100.00;100790.94;5092622;28;20044;-59
2022/08/17 03:40:27;;;;;;;25.38;22.70;;;;;;;20.42;100.00;100788.63;5092396;28;20036;-59
2022/08/17 03:43:17;;;;;;;30.45;24.17;;;;;;;20.47;100.00;100789.97;5092306;28;20056;-55
2022/08/17 03:57:08;;;;;;;28.15;24.65;;;;;;;20.51;100.00;100789.44;5092061;28;20060;-59
2022/08/17 03:59:40;;;;;;;27.98;23.80;;;;;;;20.52;100.00;100791.13;5092462;28;20048;-57
2022/08/17 04:02:14;;;;;;;25.48;22.73;;;;;;;20.53;100.00;100786.59;5092462;28;20522;-57
2022/08/17 04:04:42;;;;;;;25.05;22.45;;;;;;;20.56;100.00;100786.25;5092487;28;20059;-60
2022/08/17 04:07:11;;;;;;;26.95;24.20;;;;;;;20.52;100.00;100791.13;5092116;28;20072;-60
2022/08/17 04:09:39;;;;;;;25.95;23.10;;;;;;;20.55;100.00;100781.94;5092218;28;20044;-59
2022/08/17 04:12:07;;;;;;;29.30;22.65;;;;;;;20.58;100.00;100786.94;5092243;28;20080;-60
2022/08/17 04:14:37;;;;;;;26.83;22.92;;;;;;;20.63;100.00;100789.97;5091997;28;20491;-57
2022/08/17 04:17:24;;;;;;;25.30;22.65;;;;;;;20.64;100.00;100785.44;5092036;28;20044;-61
2022/08/17 04:19:54;;;;;;;24.80;22.35;;;;;;;20.57;100.00;100779.94;5092194;28;20406;-57
2022/08/17 04:22:23;;;;;;;26.23;22.30;;;;;;;20.63;100.00;100787.28;5090920;28;20060;-57
2022/08/17 04:25:03;;;;;;;25.13;22.50;;;;;;;20.60;100.00;100784.94;5092225;28;20054;-60
2022/08/17 04:27:32;;;;;;;25.20;22.58;;;;;;;20.62;100.00;100782.94;5091767;28;20126;-55
2022/08/17 04:30:00;;;;;;;24.30;21.77;;;;;;;20.68;100.00;100778.75;5091790;28;20127;-57
2022/08/17 04:32:31;;;;;;;23.00;20.67;;;;;;;20.67;100.00;100779.75;5091687;28;20044;-60
2022/08/17 04:35:21;;;;;;;22.17;19.83;;;;;;;20.73;100.00;100787.97;5091883;28;20537;-60
2022/08/17 04:37:49;;;;;;;23.05;20.60;;;;;;;20.75;100.00;100793.13;5092002;28;20048;-56
2022/08/17 04:43:07;;;;;;;22.73;19.75;;;;;;;20.75;99.89;100788.66;5095695;28;20093;-57
2022/08/17 04:45:39;;;;;;;22.75;20.35;;;;;;;20.76;99.67;100789.47;5095787;28;20502;-59
2022/08/17 04:48:25;;;;;;;22.55;20.15;;;;;;;20.79;98.97;100799.81;5095753;28;20040;-56
2022/08/17 04:51:04;;;;;;;24.48;21.10;;;;;;;20.79;99.22;100789.13;5095861;28;20044;-60
2022/08/17 04:53:32;;;;;;;24.60;20.58;;;;;;;20.79;98.18;100788.28;5094478;28;20044;-57
2022/08/17 04:56:01;;;;;;;21.08;18.85;;;;;;;20.83;98.20;100794.97;5095713;28;20067;-58
2022/08/17 04:58:30;;;;;;;22.52;20.05;;;;;;;20.85;97.79;100793.81;5095529;28;20055;-56
2022/08/17 05:01:00;;;;;;;22.17;19.80;;;;;;;20.87;98.39;100796.31;5094931;28;20036;-59
2022/08/17 05:03:32;;;;;;;22.70;20.08;;;;;;;20.85;97.81;100792.97;5094870;28;20048;-58
2022/08/17 05:06:05;;;;;;;22.38;19.98;;;;;;;20.87;97.52;100788.28;5095302;28;20075;-56
2022/08/17 05:08:37;;;;;;;23.98;20.45;;;;;;;20.89;97.65;100797.00;5095403;28;20644;-56
2022/08/17 05:11:08;;;;;;;23.00;20.08;;;;;;;20.93;97.24;100792.97;5093571;28;20043;-57
2022/08/17 05:13:36;;;;;;;21.40;18.98;;;;;;;20.97;97.12;100790.78;5095325;28;20055;-57
2022/08/17 05:16:05;;;;;;;22.77;19.92;;;;;;;20.95;97.05;100798.97;5094893;28;20048;-56
2022/08/17 05:18:36;;;;;;;21.63;19.35;;;;;;;20.98;97.57;100798.63;5095153;28;20048;-59
2022/08/17 05:21:05;;;;;;;26.90;21.13;;;;;;;21.01;96.92;100798.31;5094807;28;20393;-60
2022/08/17 05:23:34;;;;;;;23.27;20.20;;;;;;;21.01;97.33;100800.97;5094905;28;20410;-60
2022/08/17 05:26:12;;;;;;;22.17;19.92;;;;;;;20.98;97.28;100801.28;5094718;28;20101;-58
2022/08/17 05:28:54;;;;;;;23.23;18.80;;;;;;;21.00;96.97;100804.66;5094717;28;20044;-56
2022/08/17 05:31:26;;;;;;;23.40;19.95;;;;;;;20.97;97.27;100813.00;5095164;28;20348;-56
2022/08/17 05:33:57;;;;;;;21.10;18.90;;;;;;;21.05;96.79;100818.34;5094490;28;20395;-57
2022/08/17 05:36:29;;;;;;;21.67;18.20;;;;;;;21.07;96.47;100821.66;5094128;28;20097;-56
2022/08/17 05:39:12;;;;;;;20.45;18.35;;;;;;;21.11;94.77;100819.50;5094646;28;20039;-60
2022/08/17 05:41:46;;;;;;;22.33;18.20;;;;;;;21.13;94.63;100824.69;5094386;28;20196;-57
2022/08/17 05:44:14;;;;;;;20.63;17.88;;;;;;;21.18;93.31;100823.16;5094490;28;20059;-61
2022/08/17 05:46:48;;;;;;;20.13;18.02;;;;;;;21.09;92.44;100814.34;5094774;28;20059;-57
2022/08/17 05:49:21;;;;;;;;;;;;;;;21.11;92.42;100816.81;5094198;28;20044;-56
2022/08/17 05:52:19;;;;;;;20.53;17.83;;;;;;;21.13;91.85;100813.97;5094505;28;19920;-58
2022/08/17 05:55:04;;;;;;;20.73;17.15;;;;;;;21.20;92.12;100818.50;5092361;28;20476;-56
2022/08/17 05:57:43;;;;;;;19.83;16.15;;;;;;;21.26;93.58;100833.00;5094004;28;20380;-62
2022/08/17 06:00:24;;;;;;;18.55;16.55;;;;;;;21.26;91.87;100849.88;5093890;28;20534;-61
2022/08/17 06:03:16;;;;;;;20.85;17.13;;;;;;;21.28;91.06;100857.72;5093950;28;20067;-61
2022/08/17 06:05:58;;;;;;;22.90;17.73;;;;;;;21.31;91.00;100873.47;5094184;28;20600;-57
2022/08/17 06:08:34;;;;;;;18.55;16.48;;;;;;;21.36;91.51;100855.03;5093805;28;20127;-57
2022/08/17 06:11:13;;;;;;;19.95;17.10;;;;;;;21.44;92.01;100844.31;5094000;28;20586;-59
2022/08/17 06:14:02;;;;;;;19.67;17.38;;;;;;;21.45;90.57;100846.00;5093659;28;20040;-57
2022/08/17 06:16:36;;;;;;;18.77;15.95;;;;;;;21.53;91.26;100853.19;5093767;28;20051;-58
2022/08/17 06:19:13;;;;;;;20.55;17.42;;;;;;;21.52;91.90;100842.66;5093592;28;20060;-63
2022/08/17 06:21:47;;;;;;;19.67;17.65;;;;;;;21.56;92.15;100852.03;5093705;28;20061;-56
2022/08/17 06:24:33;;;;;;;19.83;16.75;;;;;;;21.55;91.96;100839.66;5093750;28;20089;-57
2022/08/17 06:27:11;;;;;;;20.85;18.63;;;;;;;21.57;91.64;100843.81;5092424;28;20040;-57
2022/08/17 06:29:53;;;;;;;21.98;18.23;;;;;;;21.52;91.64;100848.00;5093509;28;20052;-57
2022/08/17 06:32:21;;;;;;;24.33;18.63;;;;;;;21.58;91.93;100842.81;5092171;28;20131;-56
2022/08/17 06:34:52;;;;;;;25.20;20.10;;;;;;;21.61;92.79;100852.34;5093285;28;20040;-62
2022/08/17 06:37:54;;;;;;;21.85;19.60;;;;;;;21.57;92.99;100840.31;5093525;28;20376;-55
2022/08/17 06:40:44;;;;;;;22.95;20.35;;;;;;;21.63;92.66;100846.81;5092517;28;20055;-60
2022/08/17 06:43:26;;;;;;;23.33;20.17;;;;;;;21.72;94.13;100851.97;5093242;28;20055;-58
2022/08/17 06:46:02;;;;;;;24.85;20.75;;;;;;;21.81;92.92;100850.09;5093699;28;20048;-61
2022/08/17 06:48:40;;;;;;;23.23;20.63;;;;;;;21.81;92.72;100851.94;5092894;28;20047;-57
2022/08/17 06:51:17;;;;;;;23.17;20.58;;;;;;;21.83;93.25;100845.41;5092688;28;20048;-57
2022/08/17 06:53:52;;;;;;;23.65;21.13;;;;;;;21.90;93.59;100851.72;5093467;28;20044;-56
2022/08/17 06:56:31;;;;;;;23.67;21.17;;;;;;;21.82;93.50;100853.59;5093572;28;20051;-55
2022/08/17 06:59:25;;;;;;;23.42;21.05;;;;;;;21.93;93.06;100855.91;5094142;28;20055;-62
2022/08/17 07:02:23;;;;;;;23.08;20.80;;;;;;;21.91;94.01;100858.75;5092248;28;20048;-60
2022/08/17 07:05:15;;;;;;;24.48;21.73;;;;;;;22.03;93.51;100858.34;5093215;28;20098;-57
2022/08/17 07:08:04;;;;;;;23.60;21.07;;;;;;;22.05;93.99;100854.50;5093334;28;20068;-58
2022/08/17 07:10:41;;;;;;;27.88;21.88;;;;;;;22.07;93.55;100849.81;5093293;28;20473;-57
2022/08/17 07:13:33;;;;;;;24.67;21.58;;;;;;;22.18;92.96;100853.09;5092501;28;20062;-61
2022/08/17 07:16:11;;;;;;;24.67;20.95;;;;;;;22.18;93.18;100855.75;5093143;28;20087;-56
2022/08/17 07:18:39;;;;;;;24.40;21.27;;;;;;;22.20;93.29;100859.13;5092746;28;20044;-58
2022/08/17 07:21:20;;;;;;;25.85;21.67;;;;;;;22.18;92.08;100853.09;5092480;28;20087;-62
2022/08/17 07:24:06;;;;;;;27.73;21.20;;;;;;;22.20;92.39;100859.13;5092991;28;20048;-55
2022/08/17 07:26:35;;;;;;;23.58;21.17;;;;;;;22.24;92.26;100863.09;5093030;28;20493;-59
2022/08/17 07:29:05;;;;;;;23.45;20.55;;;;;;;22.37;92.74;100862.53;5092316;28;20093;-57
2022/08/17 07:31:34;;;;;;;23.40;20.55;;;;;;;22.48;90.72;100872.03;5092398;28;20059;-57
2022/08/17 07:34:06;;;;;;;25.58;21.45;;;;;;;22.50;90.68;100872.69;5090752;28;20048;-62
2022/08/17 07:36:35;;;;;;;22.02;19.63;;;;;;;22.59;90.54;100872.44;5092576;28;20076;-61
2022/08/17 07:39:05;;;;;;;23.77;21.38;;;;;;;22.69;89.91;100882.09;5092389;28;20075;-62
2022/08/17 07:41:39;;;;;;;22.70;20.33;;;;;;;22.77;89.49;100885.53;5090948;28;20442;-62
2022/08/17 07:44:27;;;;;;;23.60;21.23;;;;;;;22.79;88.13;100871.97;5092209;28;20058;-61
2022/08/17 07:49:45;;;;;;;23.80;19.75;;;;;;;22.95;86.96;100881.72;5092248;28;20059;-57
2022/08/17 07:52:28;;;;;;;25.00;19.97;;;;;;;22.96;85.77;100886.09;5092620;28;20376;-57
2022/08/17 07:55:29;;;;;;;22.00;19.55;;;;;;;22.90;84.95;100884.09;5092375;28;20483;-57
2022/08/17 07:58:00;;;;;;;23.70;20.45;;;;;;;22.92;84.69;100885.59;5092530;28;20442;-57
2022/08/17 08:00:32;;;;;;;24.02;21.50;;;;;;;22.95;84.25;100881.72;5092350;28;20083;-57
2022/08/17 08:03:13;;;;;;;24.55;21.42;;;;;;;22.96;84.23;100878.84;5092069;28;20048;-59
2022/08/17 08:05:51;;;;;;;23.90;21.15;;;;;;;23.04;84.79;100885.16;5092383;28;20576;-58
2022/08/17 08:08:27;;;;;;;24.05;21.20;;;;;;;23.11;84.99;100883.44;5092325;28;20032;-57
2022/08/17 08:11:10;;;;;;;22.38;20.08;;;;;;;23.27;84.49;100887.81;5092608;28;20044;-57
2022/08/17 08:13:42;;;;;;;25.45;20.58;;;;;;;23.26;83.66;100897.72;5094666;28;20051;-57
2022/08/17 08:16:28;;;;;;;23.33;20.90;;;;;;;23.22;82.28;100895.59;5096274;28;20059;-56
2022/08/17 08:18:58;;;;;;;23.58;20.85;;;;;;;23.25;83.14;100896.06;5096324;28;20040;-57
2022/08/17 08:21:45;;;;;;;24.33;21.80;;;;;;;23.28;82.94;100887.63;5095031;28;20056;-61
2022/08/17 08:24:35;;;;;;;25.25;21.77;;;;;;;23.50;81.37;100889.63;5096183;28;20040;-61
2022/08/17 08:27:18;;;;;;;23.92;21.33;;;;;;;23.46;80.57;100887.31;5096169;28;20036;-62
2022/08/17 08:29:52;;;;;;;;;;;;;;;23.56;80.80;100884.34;5096452;28;20117;-58
2022/08/17 08:32:32;;;;;;;25.85;21.30;;;;;;;;;;5095974;28;19924;-63
2022/08/17 08:35:06;;;;;;;25.92;21.35;;;;;;;24.02;79.61;100888.69;5096312;28;20050;-62
2022/08/17 08:37:43;;;;;;;23.27;20.13;;;;;;;24.01;78.92;100891.56;5095952;28;20054;-61
2022/08/17 08:40:32;;;;;;;22.95;20.55;;;;;;;24.19;78.45;100894.69;5096065;28;20375;-57
2022/08/17 08:43:14;;;;;;;26.13;19.48;;;;;;;24.41;77.73;100898.25;5095445;28;20705;-58
2022/08/17 08:45:51;;;;;;;23.33;20.83;;;;;;;24.63;76.52;100899.13;5095812;28;20052;-63
2022/08/17 08:48:39;;;;;;;22.52;20.13;;;;;;;24.86;75.23;100906.16;5095838;28;20082;-61
2022/08/17 08:51:38;;;;;;;22.40;19.98;;;;;;;24.93;74.14;100919.69;5095887;28;20055;-57
2022/08/17 08:54:12;;;;;;;;;;;;;;;25.16;73.75;100915.94;5096242;28;20040;-58
2022/08/17 08:56:46;;;;;;;20.52;18.45;;;;;;;25.24;71.86;100919.31;5095503;28;19928;-57
2022/08/17 08:59:39;;;;;;;;;;;;;;;25.23;70.42;100930.28;5096789;28;20047;-62
2022/08/17 09:02:19;;;;;;;20.23;18.00;;;;;;;25.34;70.70;100937.84;5095325;28;19920;-63
2022/08/17 09:05:03;;;;;;;20.40;18.30;;;;;;;25.62;69.51;100932.44;5095486;28;20051;-58
2022/08/17 09:07:57;;;;;;;20.60;18.17;;;;;;;25.89;69.26;100921.84;5095579;28;20580;-63
2022/08/17 09:10:30;;;;;;;20.77;18.33;;;;;;;26.06;67.97;100914.28;5095239;28;20047;-58
2022/08/17 09:13:06;;;;;;;20.88;18.67;;;;;;;26.18;67.80;100914.53;5095112;28;20055;-57
2022/08/17 09:15:42;;;;;;;20.05;17.88;;;;;;;26.24;65.38;100913.72;5095087;28;20052;-62
2022/08/17 09:18:16;;;;;;;21.88;17.90;;;;;;;26.25;63.60;100911.84;5094790;28;20407;-63
2022/08/17 09:21:15;;;;;;;20.73;18.45;;;;;;;26.44;63.03;100907.56;5094906;28;20052;-63
2022/08/17 09:23:58;;;;;;;23.63;18.98;;;;;;;26.29;65.02;100895.06;5094821;28;20074;-63
2022/08/17 09:26:31;;;;;;;19.45;17.10;;;;;;;26.41;66.53;100897.16;5094168;28;20047;-63
2022/08/17 09:29:03;;;;;;;19.83;17.80;;;;;;;26.45;64.45;100887.63;5094425;28;20044;-61
2022/08/17 09:31:34;;;;;;;20.05;17.98;;;;;;;26.53;64.82;100886.63;5094758;28;20054;-56
2022/08/17 09:34:18;;;;;;;20.70;16.63;;;;;;;26.66;65.74;100875.88;5093450;28;20438;-62
2022/08/17 09:36:52;;;;;;;;;;;;;;;26.69;66.26;100875.44;5094719;28;20040;-58
2022/08/17 09:39:28;;;;;;;20.77;17.00;;;;;;;26.81;66.27;100864.91;5093328;28;19931;-58
2022/08/17 09:42:04;;;;;;;22.33;17.13;;;;;;;26.71;66.55;100875.25;5094416;28;20048;-62
2022/08/17 09:44:39;;;;;;;19.23;16.92;;;;;;;26.66;66.15;100863.19;5094065;28;20051;-62
2022/08/17 09:47:14;;;;;;;19.52;17.45;;;;;;;26.76;64.42;100867.38;5094671;28;20040;-63
2022/08/17 09:49:47;;;;;;;21.20;15.43;;;;;;;26.66;67.66;100865.06;5094397;28;20059;-64
2022/08/17 09:52:21;;;;;;;22.33;16.02;;;;;;;26.73;66.31;100863.25;5094258;28;20048;-65
2022/08/17 09:54:51;;;;;;;21.38;16.27;;;;;;;26.71;65.40;100861.78;5094569;28;20048;-63
2022/08/17 09:57:38;;;;;;;21.40;14.95;;;;;;;26.82;67.55;100856.59;5127070;27;20054;-62
2022/08/17 10:00:19;;;;;;;19.50;16.85;;;;;;;26.92;66.00;100863.47;5094015;28;20056;-59
2022/08/17 10:03:20;;;;;;;16.58;14.80;;;;;;;26.97;65.50;100871.75;5094154;28;20048;-57
2022/08/17 10:05:55;;;;;;;19.30;17.20;;;;;;;26.92;64.33;100875.06;5094332;28;20514;-64
2022/08/17 10:08:35;;;;;;;20.92;17.05;;;;;;;26.89;65.83;100871.97;5094003;28;20040;-57
2022/08/17 10:11:14;;;;;;;18.23;16.17;;;;;;;26.94;65.10;100891.91;5093891;28;20048;-65
2022/08/17 10:13:49;;;;;;;20.27;18.10;;;;;;;26.79;64.72;100886.69;5094321;28;20048;-63
2022/08/17 10:16:30;;;;;;;18.90;16.67;;;;;;;26.89;64.71;100888.97;5094067;28;20486;-65
2022/08/17 10:19:12;;;;;;;19.88;17.80;;;;;;;26.63;64.24;100892.47;5093820;28;20044;-57
2022/08/17 10:27:54;;;;;;;20.55;16.40;;;;;;;26.73;64.75;100894.78;5093977;28;20052;-63
2022/08/17 10:30:26;;;;;;;20.15;18.00;;;;;;;26.59;64.74;100904.69;5093730;28;20522;-64
2022/08/17 10:32:58;;;;;;;19.33;17.25;;;;;;;26.54;64.78;100897.19;5093539;28;20056;-63
2022/08/17 10:35:34;;;;;;;19.92;17.88;;;;;;;26.43;64.77;100906.72;5093532;28;20383;-58
2022/08/17 10:38:37;;;;;;;20.15;18.00;;;;;;;26.54;66.05;100909.84;5093674;28;20573;-63
2022/08/17 10:41:20;;;;;;;21.73;17.77;;;;;;;26.58;64.56;100920.03;5093295;28;20048;-64
2022/08/17 10:43:58;;;;;;;23.25;18.50;;;;;;;26.54;63.62;100929.56;5093219;28;20059;-59
2022/08/17 10:47:03;;;;;;;20.80;18.60;;;;;;;26.49;65.16;100943.66;5093205;28;20076;-58
2022/08/17 10:49:33;;;;;;;21.38;19.05;;;;;;;26.43;65.13;100957.94;5093206;28;20047;-64
2022/08/17 10:52:24;;;;;;;21.95;19.67;;;;;;;26.51;65.01;100961.50;5092651;28;20036;-63
2022/08/17 10:55:13;;;;;;;22.92;20.52;;;;;;;26.37;65.07;100953.38;5091607;28;20044;-59
2022/08/17 10:57:43;;;;;;;21.70;19.40;;;;;;;26.48;64.94;100957.34;5093231;28;20101;-57
2022/08/17 11:00:34;;;;;;;23.10;20.20;;;;;;;26.41;64.71;100961.84;5093065;28;20058;-59
2022/08/17 11:03:18;;;;;;;20.48;18.38;;;;;;;26.40;65.81;100952.94;5092943;28;20052;-63
2022/08/17 11:05:57;;;;;;;19.70;17.65;;;;;;;26.32;66.36;100947.75;5093244;28;20048;-58
2022/08/17 11:09:19;;;;;;;22.48;18.52;;;;;;;26.34;65.82;100953.75;5093112;28;20130;-59
2022/08/17 11:12:08;;;;;;;23.23;20.85;;;;;;;26.25;66.33;100954.97;5092926;28;20048;-59
2022/08/17 11:14:54;;;;;;;21.83;19.17;;;;;;;25.92;68.15;100952.91;5092665;28;20054;-59
2022/08/17 11:17:50;;;;;;;21.10;19.00;;;;;;;25.76;73.43;100954.91;5092506;28;20043;-63
2022/08/17 11:20:56;;;;;;;20.13;18.02;;;;;;;25.53;78.00;100954.34;5091592;28;20051;-64
2022/08/17 11:23:58;;;;;;;19.15;17.15;;;;;;;25.52;79.58;100960.75;5076968;28;20146;-58
2022/08/17 11:26:30;;;;;;;19.45;17.25;;;;;;;25.29;81.55;100973.38;5092770;28;20048;-63
2022/08/17 11:29:08;;;;;;;19.25;17.20;;;;;;;25.36;81.10;100968.09;5092701;28;20058;-60
2022/08/17 11:31:41;;;;;;;21.88;19.67;;;;;;;25.25;82.80;100965.88;5092488;28;20044;-64
2022/08/17 11:34:18;;;;;;;22.98;20.58;;;;;;;24.86;85.89;100969.88;5092529;28;20039;-63
2022/08/17 11:37:05;;;;;;;21.52;19.25;;;;;;;24.93;88.92;100976.16;5092861;28;20093;-59
2022/08/17 11:39:54;;;;;;;21.45;19.23;;;;;;;25.05;91.84;100971.09;5092796;28;20503;-63
2022/08/17 11:42:38;;;;;;;21.67;19.48;;;;;;;25.02;91.26;100966.94;5037685;28;20083;-58
2022/08/17 11:45:36;;;;;;;21.65;19.50;;;;;;;25.04;88.32;100956.81;5092636;28;20115;-64
2022/08/17 11:54:31;;;;;;;26.55;23.85;;;;;;;24.27;97.71;100982.41;5049750;28;20124;-61
2022/08/17 11:57:39;;;;;;;29.00;26.10;;;;;;;24.38;98.21;100981.09;5089565;28;20059;-57
2022/08/17 12:00:56;;;;;;;28.85;25.70;;;;;;;24.36;100.00;100992.03;5092168;28;20032;-53
2022/08/17 12:03:44;;;;;;;28.50;25.60;;;;;;;24.26;99.27;100988.81;5072913;28;20055;-61
2022/08/17 12:06:43;;;;;;;29.90;26.90;;;;;;;24.23;100.00;100981.13;5092071;28;20097;-62
2022/08/17 12:09:18;;;;;;;29.45;26.45;;;;;;;24.13;100.00;100971.50;5092099;28;20118;-60
2022/08/17 12:11:55;;;;;;;30.58;27.67;;;;;;;23.93;100.00;100962.34;5092097;28;20375;-62
2022/08/17 12:14:47;;;;;;;30.95;27.85;;;;;;;23.82;100.00;100965.44;5090518;28;20085;-60
2022/08/17 12:17:36;;;;;;;31.17;28.17;;;;;;;23.49;100.00;100969.28;5092133;28;20097;-61
2022/08/17 12:20:20;;;;;;;32.03;28.85;;;;;;;23.57;100.00;100966.53;5090922;28;20143;-54
2022/08/17 12:22:56;;;;;;;29.58;26.67;;;;;;;23.56;100.00;100980.13;5092240;28;20059;-55
2022/08/17 12:25:33;;;;;;;29.42;26.50;;;;;;;23.55;100.00;100983.84;5092261;28;20036;-52